Terminal Aerodrome Forecast
Issued by NWS

Home | Current Version | Previous Version | Graphics & Text | Print | Product List | Glossary On
Versions: 1 2 3 4 5 6 7 8 9 10 11 12
000
FTUS43 KIWX 180520
TAFSBN
TAF
KSBN 180520Z 1806/1906 20006KT P6SM SKC
     FM181600 19014G22KT P6SM SKC
     FM190300 20008KT P6SM SKC=

USA.gov is the U.S. government's official web portal to all federal, state and local government web resources and services.